createdAt,value
2018-07-17T00:04:54.475Z,18.50
2018-07-17T00:07:22.567Z,18.50
2018-07-17T00:09:50.376Z,18.60
2018-07-17T00:12:18.382Z,18.60
2018-07-17T00:14:46.733Z,18.60
2018-07-17T00:19:42.531Z,18.70
2018-07-17T00:22:11.329Z,18.70
2018-07-17T00:24:39.184Z,18.80
2018-07-17T00:27:07.178Z,18.70
2018-07-17T00:29:35.273Z,18.60
2018-07-17T00:37:02.756Z,18.60
2018-07-17T00:39:31.987Z,18.50
2018-07-17T00:42:00.408Z,18.50
2018-07-17T00:44:29.724Z,18.50
2018-07-17T00:46:58.126Z,18.50
2018-07-17T00:49:27.293Z,18.50
2018-07-17T00:51:55.315Z,18.40
2018-07-17T00:54:23.765Z,18.40
2018-07-17T00:59:20.150Z,18.40
2018-07-17T01:01:53.574Z,18.50
2018-07-17T01:04:27.528Z,18.40
2018-07-17T01:12:08.681Z,18.30
2018-07-17T01:14:45.334Z,18.30
2018-07-17T01:17:13.305Z,18.30
2018-07-17T01:19:41.708Z,18.30
2018-07-17T01:22:09.828Z,18.20
2018-07-17T01:24:38.656Z,18.20
2018-07-17T01:27:07.140Z,18.10
2018-07-17T01:29:35.266Z,17.90
2018-07-17T01:32:03.695Z,17.90
2018-07-17T01:34:31.915Z,17.90
2018-07-17T01:37:01.325Z,17.80
2018-07-17T01:39:29.187Z,17.70
2018-07-17T01:41:57.825Z,17.80
2018-07-17T01:44:25.947Z,17.50
2018-07-17T01:46:55.181Z,17.40
2018-07-17T01:49:23.512Z,17.50
2018-07-17T01:51:51.703Z,17.50
2018-07-17T01:56:47.274Z,17.50
2018-07-17T01:59:15.405Z,17.40
2018-07-17T02:04:11.527Z,17.40
2018-07-17T02:06:39.547Z,17.40
2018-07-17T02:09:07.437Z,17.20
2018-07-17T02:11:36.346Z,17.10
2018-07-17T02:14:04.655Z,17.10
2018-07-17T02:19:00.575Z,17.20
2018-07-17T02:21:28.661Z,17.20
2018-07-17T02:23:56.578Z,17.10
2018-07-17T02:26:25.165Z,17.10
2018-07-17T02:28:53.250Z,17.20
2018-07-17T02:31:21.576Z,17.20
2018-07-17T02:36:17.327Z,17.10
2018-07-17T02:38:45.762Z,17.10
2018-07-17T02:41:13.584Z,16.90
2018-07-17T02:43:41.810Z,16.80
2018-07-17T02:46:09.644Z,16.80
2018-07-17T02:48:38.227Z,16.70
2018-07-17T02:51:06.438Z,16.70
2018-07-17T02:53:35.201Z,16.80
2018-07-17T02:56:03.578Z,16.80
2018-07-17T02:58:31.668Z,16.70
2018-07-17T03:01:00.721Z,16.80
2018-07-17T03:03:29.751Z,16.80
2018-07-17T03:05:57.843Z,16.90
2018-07-17T03:08:25.686Z,17.00
2018-07-17T03:10:53.645Z,17.00
2018-07-17T03:13:21.742Z,17.10
2018-07-17T03:15:49.648Z,17.20
2018-07-17T03:18:17.461Z,17.20
2018-07-17T03:20:45.764Z,17.20
2018-07-17T03:25:41.939Z,17.30
2018-07-17T03:28:10.075Z,17.30
2018-07-17T03:30:37.992Z,17.40
2018-07-17T03:33:06.112Z,17.50
2018-07-17T03:35:34.811Z,17.50
2018-07-17T03:38:03.487Z,17.60
2018-07-17T03:42:59.319Z,17.50
2018-07-17T03:45:27.122Z,17.60
2018-07-17T03:47:54.960Z,17.60
2018-07-17T03:50:23.325Z,17.60
2018-07-17T03:52:51.868Z,17.70
2018-07-17T03:55:19.926Z,17.80
2018-07-17T03:57:48.072Z,17.90
2018-07-17T04:02:43.562Z,17.90
2018-07-17T04:05:11.702Z,17.90
2018-07-17T04:07:39.517Z,18.00
2018-07-17T04:12:36.500Z,18.10
2018-07-17T04:17:32.687Z,18.10
2018-07-17T04:20:00.763Z,18.30
2018-07-17T04:22:28.550Z,18.30
2018-07-17T04:24:57.203Z,18.40
2018-07-17T04:27:25.442Z,18.40
2018-07-17T04:29:53.294Z,18.50
2018-07-17T04:32:22.102Z,18.50
2018-07-17T04:34:52.864Z,18.50
2018-07-17T04:37:20.674Z,18.50
2018-07-17T04:39:48.511Z,18.60
2018-07-17T04:42:16.641Z,18.70
2018-07-17T04:47:13.530Z,18.80
2018-07-17T04:49:41.671Z,18.80
2018-07-17T04:54:39.084Z,18.70
2018-07-17T04:57:07.300Z,18.70
2018-07-17T04:59:35.890Z,18.70
2018-07-17T05:02:03.795Z,18.70
2018-07-17T05:04:32.868Z,18.70
2018-07-17T05:09:28.352Z,18.80
2018-07-17T05:11:56.395Z,19.00
2018-07-17T05:14:24.319Z,19.10
2018-07-17T05:24:16.759Z,19.10
2018-07-17T05:26:45.598Z,19.10
2018-07-17T05:31:41.161Z,19.30
2018-07-17T05:34:09.224Z,19.30
2018-07-17T05:39:07.323Z,19.40
2018-07-17T05:41:35.370Z,19.40
2018-07-17T05:44:03.236Z,19.40
2018-07-17T05:46:31.764Z,19.40
2018-07-17T05:48:59.905Z,19.50
2018-07-17T05:51:29.277Z,19.40
2018-07-17T05:53:57.259Z,19.40
2018-07-17T05:56:25.837Z,19.30
2018-07-17T05:58:54.399Z,19.30
2018-07-17T06:01:22.276Z,19.40
2018-07-17T06:03:50.377Z,19.30
2018-07-17T06:06:18.783Z,19.40
2018-07-17T06:08:47.411Z,19.50
2018-07-17T06:11:16.955Z,19.60
2018-07-17T06:13:45.408Z,19.70
2018-07-17T06:16:13.248Z,19.70
2018-07-17T06:18:42.336Z,19.70
2018-07-17T06:21:10.290Z,19.70
2018-07-17T06:23:38.745Z,19.80
2018-07-17T06:26:06.916Z,19.90
2018-07-17T06:28:35.341Z,19.90
2018-07-17T06:31:03.318Z,20.00
2018-07-17T06:33:31.564Z,20.20
2018-07-17T06:36:01.252Z,20.20
2018-07-17T06:38:29.075Z,20.10
2018-07-17T06:40:57.314Z,20.10
2018-07-17T06:43:25.148Z,20.10
2018-07-17T06:48:20.985Z,20.30
2018-07-17T06:53:17.956Z,20.30
2018-07-17T06:58:14.214Z,20.40
2018-07-17T07:00:42.886Z,20.40
2018-07-17T07:05:39.740Z,20.40
2018-07-17T07:10:37.005Z,20.60
2018-07-17T07:13:05.608Z,20.70
2018-07-17T07:18:02.559Z,20.80
2018-07-17T07:22:58.821Z,21.10
2018-07-17T07:30:23.716Z,21.40
2018-07-17T07:35:20.246Z,21.60
2018-07-17T07:40:16.985Z,22.00
2018-07-17T07:42:45.418Z,22.20
2018-07-17T07:45:13.295Z,22.40
2018-07-17T07:47:42.283Z,22.60
2018-07-17T07:52:38.992Z,23.00
2018-07-17T07:55:07.324Z,23.20
2018-07-17T08:00:03.209Z,23.50
2018-07-17T08:02:31.266Z,23.60
2018-07-17T08:05:00.519Z,23.80
2018-07-17T08:07:28.345Z,23.80
2018-07-17T08:09:56.463Z,23.90
2018-07-17T08:12:24.292Z,23.70
2018-07-17T08:14:52.736Z,23.70
2018-07-17T08:17:20.884Z,23.70
2018-07-17T08:19:48.716Z,23.70
2018-07-17T08:22:16.562Z,23.80
2018-07-17T08:24:44.634Z,23.80
2018-07-17T08:27:13.601Z,24.00
2018-07-17T08:29:41.888Z,24.00
2018-07-17T08:32:10.142Z,23.90
2018-07-17T08:42:02.502Z,24.30
2018-07-17T08:44:30.387Z,24.40
2018-07-17T08:46:59.413Z,24.50
2018-07-17T08:51:56.149Z,24.70
2018-07-17T08:59:20.450Z,24.90
2018-07-17T09:01:48.539Z,24.90
2018-07-17T09:06:44.980Z,25.00
2018-07-17T09:09:13.679Z,25.10
2018-07-17T09:14:16.675Z,25.10
2018-07-17T09:16:44.483Z,25.30
2018-07-17T09:19:13.216Z,25.30
2018-07-17T09:21:42.168Z,25.40
2018-07-17T09:24:09.969Z,25.30
2018-07-17T09:26:37.819Z,25.30
2018-07-17T09:29:06.236Z,25.50
2018-07-17T09:34:01.709Z,25.70
2018-07-17T09:36:29.739Z,25.70
2018-07-17T09:41:26.796Z,25.90
2018-07-17T09:43:54.813Z,25.90
2018-07-17T09:46:22.671Z,25.70
2018-07-17T09:48:50.464Z,25.60
2018-07-17T09:51:18.566Z,25.60
2018-07-17T09:53:47.155Z,25.50
2018-07-17T09:56:14.999Z,25.50
2018-07-17T09:58:43.087Z,25.70
2018-07-17T10:01:17.403Z,25.80
2018-07-17T10:03:45.580Z,25.80
2018-07-17T10:11:09.802Z,25.90
2018-07-17T10:13:37.739Z,25.90
2018-07-17T10:16:05.905Z,26.00
2018-07-17T10:18:34.731Z,26.20
2018-07-17T10:21:02.681Z,26.50
2018-07-17T10:23:30.521Z,26.60
2018-07-17T10:25:58.650Z,26.40
2018-07-17T10:30:54.747Z,25.90
2018-07-17T10:33:22.860Z,25.60
2018-07-17T10:35:50.669Z,25.70
2018-07-17T10:38:18.768Z,25.90
2018-07-17T10:40:46.931Z,26.00
2018-07-17T10:43:14.779Z,26.20
2018-07-17T10:45:42.617Z,26.50
2018-07-17T10:50:39.670Z,26.60
2018-07-17T10:53:07.504Z,26.50
2018-07-17T10:55:36.425Z,26.60
2018-07-17T10:58:05.090Z,26.70
2018-07-17T11:00:33.513Z,26.80
2018-07-17T11:05:30.602Z,26.30
2018-07-17T11:07:59.039Z,26.10
2018-07-17T11:12:54.722Z,25.90
2018-07-17T11:15:22.546Z,26.00
2018-07-17T11:17:51.323Z,26.20
2018-07-17T11:22:46.888Z,26.60
2018-07-17T11:25:15.036Z,26.70
2018-07-17T11:30:11.186Z,27.00
2018-07-17T11:35:07.194Z,27.50
2018-07-17T11:37:35.551Z,27.60
2018-07-17T11:40:04.095Z,27.50
2018-07-17T11:42:33.351Z,27.40
2018-07-17T11:45:01.218Z,27.60
2018-07-17T11:47:29.260Z,27.60
2018-07-17T11:49:57.232Z,27.20
2018-07-17T11:52:25.046Z,26.90
2018-07-17T11:54:53.061Z,26.40
2018-07-17T11:57:20.912Z,26.00
2018-07-17T11:59:48.823Z,24.90
2018-07-17T12:02:17.748Z,23.80
2018-07-17T12:04:45.622Z,22.60
2018-07-17T12:09:41.443Z,21.30
2018-07-17T12:12:09.444Z,21.00
2018-07-17T12:14:38.438Z,20.70
2018-07-17T12:17:06.599Z,20.70
2018-07-17T12:22:02.146Z,20.90
2018-07-17T12:24:30.188Z,21.10
2018-07-17T12:29:25.737Z,21.60
2018-07-17T12:31:54.066Z,21.80
2018-07-17T12:34:22.463Z,22.10
2018-07-17T12:36:50.312Z,22.20
2018-07-17T12:39:18.401Z,22.20
2018-07-17T12:41:46.958Z,22.20
2018-07-17T12:44:14.820Z,22.10
2018-07-17T12:46:43.043Z,22.10
2018-07-17T12:49:10.869Z,22.10
2018-07-17T12:51:38.713Z,22.10
2018-07-17T12:54:07.768Z,22.00
2018-07-17T13:01:32.054Z,22.20
2018-07-17T13:04:01.840Z,22.30
2018-07-17T13:06:30.271Z,22.40
2018-07-17T13:11:27.033Z,22.60
2018-07-17T13:16:22.965Z,22.60
2018-07-17T13:18:50.769Z,22.70
2018-07-17T13:21:18.614Z,22.80
2018-07-17T13:23:46.755Z,23.00
2018-07-17T13:26:14.539Z,23.00
2018-07-17T13:28:42.444Z,23.20
2018-07-17T13:31:10.684Z,23.30
2018-07-17T13:33:38.504Z,23.50
2018-07-17T13:36:06.419Z,23.50
2018-07-17T13:38:35.516Z,23.70
2018-07-17T13:46:00.137Z,23.80
2018-07-17T13:48:28.641Z,23.80
2018-07-17T13:50:56.930Z,23.70
2018-07-17T13:53:25.584Z,23.60
2018-07-17T13:58:22.036Z,23.50
2018-07-17T14:00:50.320Z,23.50
2018-07-17T14:03:18.116Z,23.50
2018-07-17T14:05:45.948Z,23.40
2018-07-17T14:10:43.180Z,23.40
2018-07-17T14:13:11.041Z,23.40
2018-07-17T14:15:39.149Z,23.30
2018-07-17T14:18:07.019Z,23.30
2018-07-17T14:20:34.842Z,23.40
2018-07-17T14:23:03.570Z,23.40
2018-07-17T14:25:31.392Z,23.50
2018-07-17T14:27:59.235Z,23.60
2018-07-17T14:30:27.584Z,23.70
2018-07-17T14:35:23.107Z,24.00
2018-07-17T14:37:51.493Z,24.10
2018-07-17T14:40:19.431Z,24.30
2018-07-17T14:42:47.531Z,24.60
2018-07-17T14:45:15.697Z,24.90
2018-07-17T14:47:43.558Z,25.20
2018-07-17T14:50:12.027Z,25.20
2018-07-17T14:52:40.848Z,25.10
2018-07-17T14:55:10.036Z,25.20
2018-07-17T14:57:38.571Z,25.30
2018-07-17T15:00:07.902Z,25.50
2018-07-17T15:02:36.571Z,25.70
2018-07-17T15:05:05.080Z,25.80
2018-07-17T15:07:33.150Z,26.10
2018-07-17T15:10:01.470Z,26.30
2018-07-17T15:12:29.215Z,26.30
2018-07-17T15:14:58.199Z,26.30
2018-07-17T15:19:54.315Z,26.00
2018-07-17T15:22:23.457Z,25.90
2018-07-17T15:24:51.282Z,25.90
2018-07-17T15:27:19.132Z,26.00
2018-07-17T15:29:47.166Z,26.00
2018-07-17T15:34:42.721Z,26.50
2018-07-17T15:37:11.463Z,26.80
2018-07-17T15:39:39.277Z,27.30
2018-07-17T15:42:07.885Z,27.50
2018-07-17T15:44:35.976Z,27.70
2018-07-17T15:47:03.847Z,27.60
2018-07-17T15:49:32.847Z,27.50
2018-07-17T15:52:02.260Z,27.40
2018-07-17T15:56:59.022Z,28.00
2018-07-17T15:59:27.168Z,28.30
2018-07-17T16:01:55.080Z,28.40
2018-07-17T16:04:22.924Z,28.30
2018-07-17T16:09:19.812Z,28.50
2018-07-17T16:11:48.280Z,28.50
2018-07-17T16:14:16.639Z,28.70
2018-07-17T16:16:45.660Z,28.60
2018-07-17T16:19:13.472Z,28.80
2018-07-17T16:21:42.197Z,28.80
2018-07-17T16:26:37.824Z,28.20
2018-07-17T16:29:05.875Z,27.90
2018-07-17T16:34:01.349Z,27.30
2018-07-17T16:36:29.474Z,27.00
2018-07-17T16:38:57.301Z,26.80
2018-07-17T16:41:25.163Z,26.50
2018-07-17T16:43:54.223Z,26.40
2018-07-17T16:46:23.597Z,26.40
2018-07-17T16:48:52.154Z,26.50
2018-07-17T16:51:20.335Z,26.60
2018-07-17T16:53:48.115Z,26.60
2018-07-17T16:56:15.932Z,26.50
2018-07-17T17:01:11.654Z,26.20
2018-07-17T17:06:07.474Z,25.80
2018-07-17T17:11:05.126Z,25.90
2018-07-17T17:13:33.592Z,25.90
2018-07-17T17:16:01.442Z,26.00
2018-07-17T17:18:30.608Z,25.90
2018-07-17T17:23:27.281Z,25.80
2018-07-17T17:28:23.318Z,25.60
2018-07-17T17:30:52.773Z,25.60
2018-07-17T17:33:20.623Z,25.50
2018-07-17T17:35:48.748Z,25.50
2018-07-17T17:40:45.043Z,25.20
2018-07-17T17:43:14.084Z,25.20
2018-07-17T17:45:41.908Z,25.10
2018-07-17T17:48:11.237Z,25.10
2018-07-17T17:50:39.657Z,25.10
2018-07-17T17:53:07.611Z,25.00
2018-07-17T17:55:36.483Z,25.00
2018-07-17T18:00:32.830Z,24.90
2018-07-17T18:03:00.745Z,24.80
2018-07-17T18:05:28.778Z,24.80
2018-07-17T18:07:58.716Z,24.90
2018-07-17T18:10:26.548Z,24.90
2018-07-17T18:12:55.617Z,24.90
2018-07-17T18:15:23.466Z,25.00
2018-07-17T18:17:51.284Z,25.00
2018-07-17T18:20:19.675Z,25.00
2018-07-17T18:22:47.817Z,25.00
2018-07-17T18:25:16.593Z,25.00
2018-07-17T18:27:44.916Z,25.00
2018-07-17T18:35:09.628Z,24.90
2018-07-17T18:40:05.157Z,24.80
2018-07-17T18:42:33.811Z,24.70
2018-07-17T18:45:01.646Z,24.60
2018-07-17T18:47:30.403Z,24.50
2018-07-17T18:52:26.805Z,24.50
2018-07-17T18:54:54.631Z,24.40
2018-07-17T18:59:50.826Z,24.30
2018-07-17T19:02:19.731Z,24.20
2018-07-17T19:04:47.827Z,24.10
2018-07-17T19:07:15.651Z,24.10
2018-07-17T19:09:43.579Z,24.00
2018-07-17T19:12:11.641Z,24.00
2018-07-17T19:14:39.503Z,23.90
2018-07-17T19:17:07.315Z,23.90
2018-07-17T19:19:35.392Z,23.80
2018-07-17T19:22:04.009Z,23.70
2018-07-17T19:24:31.910Z,23.60
2018-07-17T19:29:28.857Z,23.50
2018-07-17T19:34:24.637Z,23.20
2018-07-17T19:36:52.493Z,23.00
2018-07-17T19:39:21.917Z,22.80
2018-07-17T19:41:50.036Z,22.60
2018-07-17T19:46:46.884Z,22.20
2018-07-17T19:49:14.959Z,22.10
2018-07-17T19:51:42.784Z,22.00
2018-07-17T19:54:10.641Z,21.90
2018-07-17T19:56:38.867Z,21.80
2018-07-17T19:59:06.716Z,21.70
2018-07-17T20:01:35.149Z,21.60
2018-07-17T20:04:04.415Z,21.60
2018-07-17T20:06:32.257Z,21.50
2018-07-17T20:09:00.078Z,21.50
2018-07-17T20:11:29.455Z,21.30
2018-07-17T20:16:25.996Z,21.40
2018-07-17T20:23:51.014Z,21.10
2018-07-17T20:26:19.627Z,21.00
2018-07-17T20:28:47.500Z,20.90
2018-07-17T20:33:43.432Z,20.90
2018-07-17T20:38:39.678Z,20.90
2018-07-17T20:41:08.684Z,20.90
2018-07-17T20:43:36.510Z,21.00
2018-07-17T20:46:04.491Z,21.00
2018-07-17T20:48:32.687Z,21.00
2018-07-17T20:53:28.287Z,20.90
2018-07-17T20:55:57.124Z,20.90
2018-07-17T21:00:53.980Z,20.90
2018-07-17T21:03:22.545Z,20.90
2018-07-17T21:05:51.354Z,20.80
2018-07-17T21:08:19.192Z,20.80
2018-07-17T21:10:47.348Z,20.70
2018-07-17T21:13:15.207Z,20.70
2018-07-17T21:15:43.830Z,20.60
2018-07-17T21:18:12.728Z,20.70
2018-07-17T21:23:08.844Z,20.50
2018-07-17T21:25:37.749Z,20.40
2018-07-17T21:30:34.914Z,20.20
2018-07-17T21:35:31.735Z,20.10
2018-07-17T21:38:00.076Z,20.10
2018-07-17T21:40:28.782Z,20.00
2018-07-17T21:42:56.982Z,19.80
2018-07-17T21:45:24.972Z,19.80
2018-07-17T21:50:20.794Z,19.70
2018-07-17T21:52:48.637Z,19.60
2018-07-17T21:55:16.769Z,19.70
2018-07-17T22:00:12.877Z,19.60
2018-07-17T22:02:41.496Z,19.60
2018-07-17T22:07:37.159Z,19.60
2018-07-17T22:10:05.307Z,19.70
2018-07-17T22:15:01.755Z,19.70
2018-07-17T22:22:26.104Z,19.80
2018-07-17T22:24:54.891Z,19.70
2018-07-17T22:27:22.980Z,19.70
2018-07-17T22:29:50.778Z,19.70
2018-07-17T22:32:18.851Z,19.80
2018-07-17T22:34:47.411Z,19.70
2018-07-17T22:37:15.913Z,19.70
2018-07-17T22:39:44.314Z,19.80
2018-07-17T22:44:39.974Z,19.80
2018-07-17T22:47:08.101Z,19.80
2018-07-17T22:49:37.448Z,19.70
2018-07-17T22:52:05.420Z,19.70
2018-07-17T22:54:33.543Z,19.70
2018-07-17T22:57:01.348Z,19.70
2018-07-17T22:59:29.241Z,19.70
2018-07-17T23:01:58.287Z,19.70
2018-07-17T23:06:53.783Z,19.80
2018-07-17T23:09:21.844Z,19.80
2018-07-17T23:11:50.263Z,19.90
2018-07-17T23:14:18.883Z,19.90
2018-07-17T23:16:48.767Z,20.00
2018-07-17T23:21:44.306Z,20.00
2018-07-17T23:26:40.784Z,20.00
2018-07-17T23:29:08.623Z,20.10
2018-07-17T23:34:05.242Z,20.10
2018-07-17T23:36:34.427Z,20.20
2018-07-17T23:39:03.349Z,20.10
2018-07-17T23:41:31.199Z,20.20
2018-07-17T23:43:59.022Z,20.10
2018-07-17T23:46:27.206Z,20.10
2018-07-17T23:48:55.569Z,20.10
2018-07-17T23:51:23.396Z,19.90
2018-07-17T23:53:52.219Z,19.90
2018-07-17T23:56:20.585Z,19.90
